createdAt,value
2017-07-06T00:01:16.362Z,4.90
2017-07-06T00:03:42.619Z,5.87
2017-07-06T00:06:08.940Z,4.37
2017-07-06T00:08:35.205Z,5.07
2017-07-06T00:11:02.202Z,4.83
2017-07-06T00:13:28.466Z,5.67
2017-07-06T00:15:54.726Z,5.63
2017-07-06T00:18:20.993Z,4.70
2017-07-06T00:20:47.283Z,5.20
2017-07-06T00:23:14.610Z,5.00
2017-07-06T00:25:42.242Z,5.27
2017-07-06T00:28:08.521Z,4.67
2017-07-06T00:30:35.815Z,4.90
2017-07-06T00:33:02.098Z,4.70
2017-07-06T00:35:28.379Z,4.60
2017-07-06T00:37:54.643Z,5.40
2017-07-06T00:40:21.649Z,4.83
2017-07-06T00:42:47.943Z,5.43
2017-07-06T00:45:14.202Z,4.43
2017-07-06T00:47:40.465Z,4.07
2017-07-06T00:50:06.742Z,4.40
2017-07-06T00:52:33.011Z,4.03
2017-07-06T00:54:59.321Z,4.20
2017-07-06T00:57:25.598Z,4.87
2017-07-06T00:59:51.868Z,3.90
2017-07-06T01:02:18.123Z,3.83
2017-07-06T01:04:44.389Z,4.03
2017-07-06T01:07:10.677Z,4.60
2017-07-06T01:09:36.998Z,4.10
2017-07-06T01:12:03.273Z,4.07
2017-07-06T01:14:30.293Z,4.10
2017-07-06T01:16:57.333Z,3.80
2017-07-06T01:19:23.629Z,4.20
2017-07-06T01:21:49.903Z,3.70
2017-07-06T01:24:16.161Z,4.30
2017-07-06T01:26:42.420Z,3.50
2017-07-06T01:29:08.675Z,3.70
2017-07-06T01:31:34.973Z,3.93
2017-07-06T01:34:01.241Z,4.10
2017-07-06T01:36:27.533Z,4.00
2017-07-06T01:38:53.793Z,4.03
2017-07-06T01:41:20.094Z,3.90
2017-07-06T01:43:46.385Z,4.07
2017-07-06T01:46:12.693Z,3.77
2017-07-06T01:48:38.989Z,3.53
2017-07-06T01:51:05.286Z,3.97
2017-07-06T01:53:31.581Z,3.93
2017-07-06T01:55:58.647Z,4.37
2017-07-06T01:58:24.948Z,4.13
2017-07-06T02:00:51.245Z,4.20
2017-07-06T02:03:17.520Z,3.83
2017-07-06T02:05:43.787Z,4.00
2017-07-06T02:08:17.614Z,4.07
2017-07-06T02:10:43.891Z,3.80
2017-07-06T02:13:10.905Z,3.77
2017-07-06T02:15:37.194Z,4.00
2017-07-06T02:18:03.465Z,4.37
2017-07-06T02:20:29.779Z,4.47
2017-07-06T02:22:56.073Z,3.90
2017-07-06T02:25:22.326Z,4.27
2017-07-06T02:27:48.598Z,4.20
2017-07-06T02:30:14.874Z,4.53
2017-07-06T02:32:41.192Z,3.80
2017-07-06T02:35:07.465Z,3.30
2017-07-06T02:37:33.741Z,3.53
2017-07-06T02:40:00.013Z,3.77
2017-07-06T02:42:26.287Z,3.30
2017-07-06T02:44:53.323Z,3.70
2017-07-06T02:47:19.610Z,3.33
2017-07-06T02:49:45.874Z,3.30
2017-07-06T02:52:12.889Z,3.43
2017-07-06T02:54:40.019Z,3.50
2017-07-06T02:57:06.301Z,3.50
2017-07-06T02:59:32.573Z,3.47
2017-07-06T03:01:58.837Z,2.90
2017-07-06T03:04:25.110Z,4.20
2017-07-06T03:06:51.373Z,3.33
2017-07-06T03:09:18.655Z,3.60
2017-07-06T03:11:44.929Z,3.90
2017-07-06T03:14:11.209Z,4.40
2017-07-06T03:16:37.477Z,3.90
2017-07-06T03:19:03.746Z,4.00
2017-07-06T03:21:30.038Z,3.43
2017-07-06T03:23:56.307Z,3.63
2017-07-06T03:26:22.568Z,3.60
2017-07-06T03:28:48.826Z,3.83
2017-07-06T03:31:15.104Z,3.77
2017-07-06T03:33:41.393Z,3.70
2017-07-06T03:36:07.653Z,3.23
2017-07-06T03:38:33.926Z,3.20
2017-07-06T03:41:00.949Z,3.70
2017-07-06T03:43:27.231Z,3.33
2017-07-06T03:45:53.514Z,3.00
2017-07-06T03:48:20.518Z,3.60
2017-07-06T03:50:46.785Z,3.40
2017-07-06T03:53:13.078Z,3.20
2017-07-06T03:55:39.381Z,3.03
2017-07-06T03:58:05.682Z,4.10
2017-07-06T04:00:31.946Z,3.40
2017-07-06T04:02:58.215Z,3.33
2017-07-06T04:05:24.472Z,3.30
2017-07-06T04:07:50.792Z,4.13
2017-07-06T04:10:18.081Z,3.50
2017-07-06T04:12:44.349Z,3.23
2017-07-06T04:15:10.627Z,3.70
2017-07-06T04:17:36.885Z,3.60
2017-07-06T04:20:04.173Z,4.20
2017-07-06T04:22:30.447Z,3.50
2017-07-06T04:24:56.707Z,3.70
2017-07-06T04:27:22.987Z,3.57
2017-07-06T04:29:49.993Z,3.30
2017-07-06T04:32:16.285Z,3.30
2017-07-06T04:34:42.562Z,3.97
2017-07-06T04:37:08.866Z,3.53
2017-07-06T04:39:35.134Z,3.80
2017-07-06T04:42:01.394Z,3.93
2017-07-06T04:44:27.652Z,3.53
2017-07-06T04:46:53.942Z,4.00
2017-07-06T04:49:20.204Z,3.37
2017-07-06T04:51:46.489Z,4.40
2017-07-06T04:54:14.534Z,4.20
2017-07-06T04:56:40.798Z,3.93
2017-07-06T04:59:08.098Z,4.17
2017-07-06T05:01:34.365Z,3.23
2017-07-06T05:04:01.373Z,3.40
2017-07-06T05:06:27.649Z,3.57
2017-07-06T05:08:54.658Z,3.77
2017-07-06T05:11:20.950Z,4.27
2017-07-06T05:13:47.207Z,3.50
2017-07-06T05:16:13.461Z,3.73
2017-07-06T05:18:39.725Z,3.40
2017-07-06T05:21:05.985Z,3.60
2017-07-06T05:23:32.253Z,3.40
2017-07-06T05:25:59.256Z,3.50
2017-07-06T05:28:25.517Z,2.90
2017-07-06T05:30:51.774Z,3.30
2017-07-06T05:33:19.050Z,3.40
2017-07-06T05:35:45.345Z,3.00
2017-07-06T05:38:12.329Z,2.93
2017-07-06T05:40:38.590Z,3.37
2017-07-06T05:43:04.857Z,3.70
2017-07-06T05:45:31.116Z,3.47
2017-07-06T05:47:57.394Z,3.47
2017-07-06T05:50:23.653Z,3.80
2017-07-06T05:52:49.922Z,3.67
2017-07-06T05:55:17.225Z,3.47
2017-07-06T05:57:44.235Z,3.30
2017-07-06T06:00:10.499Z,2.77
2017-07-06T06:02:36.781Z,3.17
2017-07-06T06:05:03.048Z,3.70
2017-07-06T06:07:30.051Z,3.80
2017-07-06T06:09:56.352Z,3.70
2017-07-06T06:12:22.603Z,3.93
2017-07-06T06:14:48.862Z,3.20
2017-07-06T06:17:15.154Z,3.60
2017-07-06T06:19:41.424Z,3.33
2017-07-06T06:22:07.705Z,3.33
2017-07-06T06:24:33.986Z,3.90
2017-07-06T06:27:00.994Z,3.57
2017-07-06T06:29:27.249Z,3.23
2017-07-06T06:31:53.518Z,3.50
2017-07-06T06:34:19.773Z,3.33
2017-07-06T06:36:46.049Z,3.00
2017-07-06T06:39:12.306Z,3.80
2017-07-06T06:41:38.561Z,3.10
2017-07-06T06:44:04.886Z,3.20
2017-07-06T06:46:31.137Z,3.40
2017-07-06T06:48:57.417Z,3.23
2017-07-06T06:51:24.714Z,3.00
2017-07-06T06:53:50.983Z,2.93
2017-07-06T06:56:17.975Z,3.30
2017-07-06T06:58:44.230Z,3.10
2017-07-06T07:01:10.510Z,3.00
2017-07-06T07:03:36.762Z,2.93
2017-07-06T07:06:03.023Z,2.93
2017-07-06T07:08:29.302Z,3.00
2017-07-06T07:10:55.563Z,3.00
2017-07-06T07:13:21.833Z,3.17
2017-07-06T07:15:48.826Z,3.00
2017-07-06T07:18:15.082Z,2.83
2017-07-06T07:20:41.341Z,3.40
2017-07-06T07:23:07.595Z,2.97
2017-07-06T07:25:33.866Z,2.67
2017-07-06T07:28:00.141Z,3.13
2017-07-06T07:30:26.392Z,3.03
2017-07-06T07:32:52.637Z,3.17
2017-07-06T07:35:18.889Z,2.67
2017-07-06T07:37:45.166Z,2.93
2017-07-06T07:40:11.442Z,2.93
2017-07-06T07:42:37.704Z,2.57
2017-07-06T07:45:03.961Z,3.43
2017-07-06T07:47:30.238Z,3.37
2017-07-06T07:49:57.262Z,3.30
2017-07-06T07:52:23.525Z,2.83
2017-07-06T07:54:50.519Z,3.37
2017-07-06T07:57:16.770Z,3.10
2017-07-06T07:59:43.042Z,3.47
2017-07-06T08:02:09.322Z,3.30
2017-07-06T08:04:35.580Z,3.30
2017-07-06T08:07:02.576Z,3.30
2017-07-06T08:09:28.842Z,3.20
2017-07-06T08:11:55.836Z,3.13
2017-07-06T08:14:22.130Z,3.40
2017-07-06T08:16:49.137Z,3.20
2017-07-06T08:19:15.402Z,2.90
2017-07-06T08:21:42.404Z,3.20
2017-07-06T08:24:08.657Z,3.10
2017-07-06T08:26:34.948Z,3.17
2017-07-06T08:29:01.213Z,3.50
2017-07-06T08:31:27.473Z,3.50
2017-07-06T08:33:53.737Z,3.03
2017-07-06T08:36:20.023Z,3.00
2017-07-06T08:38:47.049Z,3.20
2017-07-06T08:41:13.320Z,3.30
2017-07-06T08:43:39.574Z,3.63
2017-07-06T08:46:05.871Z,3.30
2017-07-06T08:48:32.126Z,3.40
2017-07-06T08:50:58.401Z,3.43
2017-07-06T08:53:25.407Z,3.80
2017-07-06T08:55:51.680Z,3.57
2017-07-06T08:58:18.673Z,3.33
2017-07-06T09:00:44.934Z,3.40
2017-07-06T09:03:11.218Z,3.00
2017-07-06T09:05:37.491Z,3.50
2017-07-06T09:08:03.746Z,3.73
2017-07-06T09:10:30.011Z,3.57
2017-07-06T09:12:56.273Z,3.57
2017-07-06T09:15:22.554Z,3.00
2017-07-06T09:17:48.810Z,3.50
2017-07-06T09:20:15.061Z,3.37
2017-07-06T09:22:41.325Z,3.07
2017-07-06T09:25:07.601Z,2.97
2017-07-06T09:27:33.880Z,3.73
2017-07-06T09:30:00.145Z,2.93
2017-07-06T09:32:26.405Z,2.87
2017-07-06T09:34:52.662Z,3.23
2017-07-06T09:37:19.674Z,2.93
2017-07-06T09:39:46.977Z,3.00
2017-07-06T09:42:13.240Z,3.20
2017-07-06T09:44:39.485Z,2.73
2017-07-06T09:47:05.734Z,4.20
2017-07-06T09:49:32.734Z,2.97
2017-07-06T09:51:59.018Z,3.30
2017-07-06T09:54:25.268Z,3.10
2017-07-06T09:56:51.526Z,3.00
2017-07-06T09:59:17.818Z,2.97
2017-07-06T10:01:44.073Z,2.83
2017-07-06T10:04:11.394Z,3.03
2017-07-06T10:06:37.662Z,2.80
2017-07-06T10:09:03.941Z,3.00
2017-07-06T10:11:30.941Z,4.17
2017-07-06T10:13:57.199Z,2.80
2017-07-06T10:16:24.234Z,3.63
2017-07-06T10:18:50.505Z,3.37
2017-07-06T10:21:16.774Z,3.13
2017-07-06T10:23:43.034Z,2.97
2017-07-06T10:26:09.289Z,3.07
2017-07-06T10:28:35.577Z,3.50
2017-07-06T10:31:01.837Z,3.20
2017-07-06T10:33:28.833Z,3.07
2017-07-06T10:35:55.090Z,3.13
2017-07-06T10:38:22.101Z,3.50
2017-07-06T10:40:48.381Z,3.30
2017-07-06T10:43:15.385Z,3.00
2017-07-06T10:45:41.641Z,3.70
2017-07-06T10:48:07.902Z,3.10
2017-07-06T10:50:34.161Z,3.43
2017-07-06T10:53:00.437Z,3.60
2017-07-06T10:55:27.442Z,3.07
2017-07-06T10:57:53.694Z,3.33
2017-07-06T11:00:19.961Z,2.83
2017-07-06T11:02:46.273Z,3.40
2017-07-06T11:05:12.522Z,3.40
2017-07-06T11:07:38.791Z,3.40
2017-07-06T11:10:05.038Z,3.00
2017-07-06T11:12:31.301Z,3.20
2017-07-06T11:14:57.554Z,3.50
2017-07-06T11:17:23.878Z,3.67
2017-07-06T11:19:50.147Z,3.43
2017-07-06T11:22:16.409Z,3.10
2017-07-06T11:24:43.432Z,3.60
2017-07-06T11:27:09.698Z,3.43
2017-07-06T11:29:35.979Z,3.40
2017-07-06T11:32:02.258Z,2.70
2017-07-06T11:34:28.517Z,2.93
2017-07-06T11:36:54.797Z,3.40
2017-07-06T11:39:21.085Z,2.77
2017-07-06T11:41:47.367Z,2.53
2017-07-06T11:44:13.627Z,2.83
2017-07-06T11:46:39.889Z,3.67
2017-07-06T11:49:06.166Z,2.93
2017-07-06T11:51:32.430Z,2.73
2017-07-06T11:53:59.781Z,2.83
2017-07-06T11:56:26.034Z,2.87
2017-07-06T11:58:53.073Z,2.60
2017-07-06T12:01:19.358Z,2.93
2017-07-06T12:03:45.605Z,2.90
2017-07-06T12:06:11.884Z,2.30
2017-07-06T12:08:38.882Z,2.87
2017-07-06T12:11:05.137Z,2.77
2017-07-06T12:13:31.412Z,2.60
2017-07-06T12:15:57.669Z,2.80
2017-07-06T12:18:23.945Z,2.40
2017-07-06T12:20:50.210Z,2.70
2017-07-06T12:23:16.470Z,2.60
2017-07-06T12:25:42.734Z,2.63
2017-07-06T12:28:10.745Z,2.90
2017-07-06T12:30:37.045Z,2.27
2017-07-06T12:33:03.302Z,2.87
2017-07-06T12:35:29.584Z,2.60
2017-07-06T12:37:56.585Z,2.53
2017-07-06T12:40:22.837Z,2.80
2017-07-06T12:42:49.093Z,2.83
2017-07-06T12:45:16.113Z,2.97
2017-07-06T12:47:42.378Z,2.30
2017-07-06T12:50:08.639Z,2.27
2017-07-06T12:52:34.916Z,2.60
2017-07-06T12:55:01.169Z,2.27
2017-07-06T12:57:27.429Z,2.17
2017-07-06T12:59:53.709Z,2.33
2017-07-06T13:02:20.705Z,2.20
2017-07-06T13:04:46.959Z,2.00
2017-07-06T13:07:14.993Z,2.50
2017-07-06T13:09:41.247Z,2.40
2017-07-06T13:12:07.534Z,2.00
2017-07-06T13:14:33.813Z,2.40
2017-07-06T13:17:00.062Z,2.10
2017-07-06T13:19:27.053Z,2.43
2017-07-06T13:21:53.320Z,1.93
2017-07-06T13:24:19.596Z,2.27
2017-07-06T13:26:45.873Z,2.00
2017-07-06T13:29:12.135Z,1.90
2017-07-06T13:31:38.395Z,2.47
2017-07-06T13:34:04.646Z,2.57
2017-07-06T13:36:30.915Z,2.00
2017-07-06T13:38:57.239Z,2.10
2017-07-06T13:41:24.246Z,2.07
2017-07-06T13:43:50.506Z,2.40
2017-07-06T13:46:16.778Z,2.27
2017-07-06T13:48:43.066Z,2.37
2017-07-06T13:51:10.114Z,2.33
2017-07-06T13:53:37.142Z,2.40
2017-07-06T13:56:03.428Z,2.30
2017-07-06T13:58:29.738Z,1.93
2017-07-06T14:00:55.998Z,1.90
2017-07-06T14:03:22.286Z,2.40
2017-07-06T14:05:48.577Z,1.93
2017-07-06T14:08:14.833Z,2.00
2017-07-06T14:10:41.837Z,1.60
2017-07-06T14:13:08.087Z,2.10
2017-07-06T14:15:34.375Z,2.43
2017-07-06T14:18:00.646Z,1.80
2017-07-06T14:20:26.913Z,1.80
2017-07-06T14:22:53.187Z,2.13
2017-07-06T14:25:19.459Z,2.00
2017-07-06T14:27:47.481Z,2.10
2017-07-06T14:30:13.743Z,1.97
2017-07-06T14:32:40.773Z,1.70
2017-07-06T14:35:07.063Z,1.83
2017-07-06T14:37:33.326Z,1.60
2017-07-06T14:40:00.002Z,1.80
2017-07-06T14:42:26.260Z,1.93
2017-07-06T14:44:52.544Z,1.60
2017-07-06T14:47:19.560Z,1.60
2017-07-06T14:49:45.818Z,1.57
2017-07-06T14:52:12.845Z,1.77
2017-07-06T14:54:39.122Z,1.77
2017-07-06T14:57:06.409Z,1.50
2017-07-06T14:59:33.694Z,1.80
2017-07-06T15:01:59.950Z,1.83
2017-07-06T15:04:27.018Z,1.67
2017-07-06T15:06:53.282Z,1.97
2017-07-06T15:09:19.557Z,2.30
2017-07-06T15:11:45.830Z,1.80
2017-07-06T15:14:12.097Z,2.00
2017-07-06T15:16:38.374Z,1.80
2017-07-06T15:19:04.637Z,2.10
2017-07-06T15:21:30.893Z,1.70
2017-07-06T15:23:57.160Z,2.03
2017-07-06T15:26:23.425Z,1.83
2017-07-06T15:28:49.715Z,1.90
2017-07-06T15:31:15.972Z,1.70
2017-07-06T15:33:42.233Z,1.57
2017-07-06T15:36:08.509Z,1.67
2017-07-06T15:38:34.773Z,1.70
2017-07-06T15:41:01.805Z,2.00
2017-07-06T15:43:28.058Z,1.73
2017-07-06T15:45:54.320Z,1.70
2017-07-06T15:48:20.611Z,2.07
2017-07-06T15:50:46.890Z,2.30
2017-07-06T15:53:13.206Z,2.07
2017-07-06T15:55:39.469Z,2.10
2017-07-06T15:58:05.733Z,2.00
2017-07-06T16:00:31.986Z,1.87
2017-07-06T16:02:58.266Z,1.83
2017-07-06T16:05:24.546Z,2.50
2017-07-06T16:07:50.811Z,2.20
2017-07-06T16:10:17.075Z,2.03
2017-07-06T16:12:43.337Z,2.07
2017-07-06T16:15:09.614Z,2.37
2017-07-06T16:17:35.901Z,3.07
2017-07-06T16:20:02.170Z,2.10
2017-07-06T16:22:28.425Z,2.37
2017-07-06T16:24:55.435Z,2.13
2017-07-06T16:27:21.700Z,2.07
2017-07-06T16:29:48.714Z,2.40
2017-07-06T16:32:15.003Z,2.07
2017-07-06T16:34:41.264Z,2.37
2017-07-06T16:37:07.529Z,2.30
2017-07-06T16:39:34.554Z,2.37
2017-07-06T16:42:00.874Z,2.23
2017-07-06T16:44:27.141Z,2.87
2017-07-06T16:46:53.433Z,2.57
2017-07-06T16:49:19.697Z,2.60
2017-07-06T16:51:46.700Z,2.23
2017-07-06T16:54:12.981Z,2.33
2017-07-06T16:56:39.711Z,2.43
2017-07-06T16:59:05.981Z,2.20
2017-07-06T17:01:32.248Z,2.00
2017-07-06T17:03:58.514Z,2.20
2017-07-06T17:06:25.124Z,1.80
2017-07-06T17:08:52.146Z,2.60
2017-07-06T17:11:18.414Z,2.00
2017-07-06T17:13:44.673Z,2.07
2017-07-06T17:16:10.936Z,2.17
2017-07-06T17:18:37.229Z,2.40
2017-07-06T17:21:03.493Z,2.50
2017-07-06T17:23:29.822Z,2.57
2017-07-06T17:25:56.097Z,1.90
2017-07-06T17:28:22.381Z,2.07
2017-07-06T17:30:48.833Z,2.40
2017-07-06T17:33:15.849Z,3.00
2017-07-06T17:35:42.124Z,2.63
2017-07-06T17:38:08.370Z,2.60
2017-07-06T17:40:35.628Z,2.23
2017-07-06T17:43:01.886Z,2.80
2017-07-06T17:45:28.141Z,2.40
2017-07-06T17:47:54.445Z,2.43
2017-07-06T17:50:20.706Z,2.73
2017-07-06T17:52:46.977Z,2.50
2017-07-06T17:55:13.243Z,2.33
2017-07-06T17:57:39.509Z,2.40
2017-07-06T18:00:05.806Z,2.90
2017-07-06T18:02:32.831Z,2.33
2017-07-06T18:04:59.086Z,2.40
2017-07-06T18:07:26.086Z,2.87
2017-07-06T18:09:52.354Z,2.93
2017-07-06T18:12:18.860Z,2.60
2017-07-06T18:14:45.117Z,2.03
2017-07-06T18:17:11.373Z,2.67
2017-07-06T18:19:37.647Z,2.80
2017-07-06T18:22:03.910Z,3.33
2017-07-06T18:24:30.942Z,2.37
2017-07-06T18:26:57.242Z,2.93
2017-07-06T18:29:23.514Z,2.33
2017-07-06T18:31:50.566Z,3.17
2017-07-06T18:34:16.831Z,3.10
2017-07-06T18:36:43.115Z,3.03
2017-07-06T18:39:09.467Z,2.53
2017-07-06T18:41:35.730Z,2.50
2017-07-06T18:44:01.997Z,2.90
2017-07-06T18:46:28.265Z,2.70
2017-07-06T18:48:54.521Z,2.57
2017-07-06T18:51:20.797Z,3.17
2017-07-06T18:53:47.806Z,3.00
2017-07-06T18:56:14.082Z,2.60
2017-07-06T18:58:40.373Z,2.90
2017-07-06T19:01:06.634Z,3.13
2017-07-06T19:03:33.638Z,2.40
2017-07-06T19:05:59.923Z,2.73
2017-07-06T19:08:27.233Z,3.23
2017-07-06T19:10:53.653Z,3.10
2017-07-06T19:13:19.954Z,3.83
2017-07-06T19:15:46.237Z,2.87
2017-07-06T19:18:12.531Z,2.87
2017-07-06T19:20:38.826Z,3.03
2017-07-06T19:23:05.088Z,2.80
2017-07-06T19:25:31.358Z,3.20
2017-07-06T19:27:58.422Z,2.67
2017-07-06T19:30:24.713Z,3.23
2017-07-06T19:32:50.966Z,3.07
2017-07-06T19:35:17.966Z,3.40
2017-07-06T19:37:44.225Z,3.00
2017-07-06T19:40:10.515Z,3.63
2017-07-06T19:42:36.829Z,4.10
2017-07-06T19:45:03.097Z,4.00
2017-07-06T19:47:29.410Z,3.77
2017-07-06T19:49:55.689Z,3.50
2017-07-06T19:52:21.938Z,2.90
2017-07-06T19:54:49.238Z,3.40
2017-07-06T19:57:15.518Z,2.80
2017-07-06T19:59:41.790Z,3.30
2017-07-06T20:02:08.041Z,3.53
2017-07-06T20:04:34.353Z,2.60
2017-07-06T20:07:00.634Z,3.30
2017-07-06T20:09:26.944Z,3.47
2017-07-06T20:11:54.021Z,3.13
2017-07-06T20:14:21.801Z,2.60
2017-07-06T20:16:48.074Z,3.50
2017-07-06T20:19:15.177Z,2.77
2017-07-06T20:21:41.451Z,3.50
2017-07-06T20:24:08.501Z,3.73
2017-07-06T20:26:35.514Z,3.60
2017-07-06T20:29:01.773Z,2.77
2017-07-06T20:31:28.033Z,3.17
2017-07-06T20:33:54.298Z,3.93
2017-07-06T20:36:20.575Z,3.17
2017-07-06T20:38:46.849Z,3.00
2017-07-06T20:41:13.118Z,3.67
2017-07-06T20:43:39.378Z,3.70
2017-07-06T20:46:05.669Z,3.63
2017-07-06T20:48:31.961Z,4.00
2017-07-06T20:50:58.232Z,3.20
2017-07-06T20:53:25.240Z,3.53
2017-07-06T20:55:51.503Z,4.10
2017-07-06T20:58:17.789Z,3.83
2017-07-06T21:00:44.112Z,3.50
2017-07-06T21:03:10.377Z,4.10
2017-07-06T21:05:36.700Z,4.33
2017-07-06T21:08:03.014Z,3.70
2017-07-06T21:10:29.288Z,4.53
2017-07-06T21:12:56.317Z,4.00
2017-07-06T21:15:22.638Z,3.60
2017-07-06T21:17:48.958Z,3.80
2017-07-06T21:20:15.234Z,3.93
2017-07-06T21:22:42.307Z,3.70
2017-07-06T21:25:08.612Z,4.40
2017-07-06T21:27:34.877Z,4.20
2017-07-06T21:30:01.188Z,3.73
2017-07-06T21:32:27.470Z,3.23
2017-07-06T21:34:53.729Z,4.07
2017-07-06T21:37:20.745Z,3.93
2017-07-06T21:39:47.009Z,3.40
2017-07-06T21:42:13.281Z,3.40
2017-07-06T21:44:39.560Z,3.83
2017-07-06T21:47:05.826Z,3.50
2017-07-06T21:49:32.102Z,3.63
2017-07-06T21:51:59.110Z,4.00
2017-07-06T21:54:25.402Z,4.03
2017-07-06T21:56:51.662Z,4.40
2017-07-06T21:59:17.926Z,3.83
2017-07-06T22:01:44.213Z,4.67
2017-07-06T22:04:10.466Z,4.30
2017-07-06T22:06:36.742Z,4.63
2017-07-06T22:09:03.034Z,4.17
2017-07-06T22:11:29.402Z,4.13
2017-07-06T22:13:55.728Z,4.90
2017-07-06T22:16:22.005Z,4.40
2017-07-06T22:18:48.277Z,3.77
2017-07-06T22:21:15.277Z,3.70
2017-07-06T22:23:41.561Z,4.03
2017-07-06T22:26:07.841Z,3.77
2017-07-06T22:28:34.157Z,3.93
2017-07-06T22:31:00.429Z,4.10
2017-07-06T22:33:27.438Z,3.93
2017-07-06T22:35:53.718Z,3.70
2017-07-06T22:38:20.741Z,4.67
2017-07-06T22:40:47.071Z,4.23
2017-07-06T22:43:13.346Z,4.43
2017-07-06T22:45:39.602Z,3.90
2017-07-06T22:48:05.929Z,4.27
2017-07-06T22:50:32.217Z,4.57
2017-07-06T22:52:58.517Z,3.50
2017-07-06T22:55:24.777Z,4.10
2017-07-06T22:57:51.041Z,4.37
2017-07-06T23:00:17.305Z,3.57
2017-07-06T23:02:43.603Z,5.17
2017-07-06T23:05:09.879Z,3.73
2017-07-06T23:07:36.887Z,4.60
2017-07-06T23:10:03.164Z,4.00
2017-07-06T23:12:29.505Z,4.10
2017-07-06T23:14:55.818Z,4.30
2017-07-06T23:17:23.879Z,5.10
2017-07-06T23:19:50.237Z,4.20
2017-07-06T23:22:16.533Z,3.90
2017-07-06T23:24:43.566Z,4.50
2017-07-06T23:27:09.851Z,4.53
2017-07-06T23:29:36.148Z,4.33
2017-07-06T23:32:03.163Z,4.00
2017-07-06T23:34:29.541Z,4.33
2017-07-06T23:36:55.873Z,4.60
2017-07-06T23:39:22.178Z,3.87
2017-07-06T23:41:48.437Z,3.87
2017-07-06T23:44:14.690Z,5.40
2017-07-06T23:46:40.972Z,4.17
2017-07-06T23:49:07.242Z,4.70
2017-07-06T23:51:33.543Z,4.20
2017-07-06T23:53:59.806Z,4.50
2017-07-06T23:56:26.086Z,4.40
2017-07-06T23:58:53.105Z,5.33
